Red Hook — WDG6782 — position and weather

sailwx.info

Track history (hours):
 
Tides and Currents Weather Stations Pressure Air Temp Water Temp Dewpoint Dewpoint Depression Visibility Wind Speed Wind Dir Waves Ship Positions

Red Hook

Owner: Vane Line Bunkering Inc, Philadelphia, PA. More information available from US FCC via Universal Licensing System and Coast Guard Vessel Documentation Center.

Last reported at 2018-Feb-18 16:15 UTC. Time now 2018-Feb-18 18:25 UTC.
Position N 36°48' W 075°53'.

Length 27 m; draft 4 m.

Type: Tow > 200 m length. MMSI: 367560590.

Date/timePositionNaut miles runAvg speedWind from/ knotsBaromVisibWave heightAir tempDewpointWater temp
2018-Feb-18 16:15N 36°48' W 075°53'310.5
2018-Feb-18 15:58N 36°51' W 075°54'510.2
2018-Feb-18 15:30N 36°55' W 075°57'5 9.4
2018-Feb-18 15:00N 36°57' W 076°02'5 9.1
2018-Feb-18 14:30N 36°59' W 076°08'5 9.2
2018-Feb-18 13:56N 37°00' W 076°14'4 8.9
2018-Feb-18 13:30N 36°59' W 076°19'4 8.6
2018-Feb-18 12:59N 36°55' W 076°20'4 8.8
2018-Feb-18 12:30N 36°51' W 076°18'3 6.5
2018-Feb-18 12:00N 36°48' W 076°18'0 0.5
2018-Feb-18 11:30N 36°48' W 076°18'0 0.0
2018-Feb-18 11:00N 36°48' W 076°18'0 0.0
2018-Feb-18 10:30N 36°48' W 076°18'0 0.0
2018-Feb-18 10:00N 36°48' W 076°18'0 0.0
2018-Feb-18 09:30N 36°48' W 076°18'0 0.0
2018-Feb-18 09:00N 36°48' W 076°18'0 0.0
2018-Feb-18 08:30N 36°48' W 076°18'0 0.0
2018-Feb-18 08:00N 36°48' W 076°18'0 0.0
2018-Feb-18 07:30N 36°48' W 076°18'0 0.0
2018-Feb-18 07:00N 36°48' W 076°18'0 0.0
2018-Feb-18 06:30N 36°48' W 076°18'0 0.0
2018-Feb-18 06:00N 36°48' W 076°18'0 0.0
2018-Feb-18 05:30N 36°48' W 076°18'0 0.0
2018-Feb-18 05:00N 36°48' W 076°18'0 0.0
2018-Feb-18 04:30N 36°48' W 076°18'0 0.0
2018-Feb-18 04:00N 36°48' W 076°18'0 0.0
2018-Feb-18 03:30N 36°48' W 076°18'0 0.0
2018-Feb-18 03:00N 36°48' W 076°18'0 0.0
2018-Feb-18 02:30N 36°48' W 076°18'0 0.0
2018-Feb-18 02:00N 36°48' W 076°18'0 0.0
2018-Feb-18 01:30N 36°48' W 076°18'0 0.0
2018-Feb-18 01:00N 36°48' W 076°18'0 0.0
2018-Feb-18 00:30N 36°48' W 076°18'0 0.0
2018-Feb-18 00:00N 36°48' W 076°18'0 0.0
2018-Feb-17 23:30N 36°48' W 076°18'0 0.0
2018-Feb-17 23:00N 36°48' W 076°18'0 0.0
2018-Feb-17 22:30N 36°48' W 076°18'0 0.0
2018-Feb-17 22:00N 36°48' W 076°18'0 0.0
2018-Feb-17 21:30N 36°48' W 076°18'0 0.0
2018-Feb-17 21:00N 36°48' W 076°18'0 0.0
2018-Feb-17 20:30N 36°48' W 076°18'0 0.0
2018-Feb-17 20:00N 36°48' W 076°18'0 0.0
2018-Feb-17 19:30N 36°48' W 076°18'0 0.0
2018-Feb-17 19:00N 36°48' W 076°18'0 0.0
2018-Feb-17 18:30N 36°48' W 076°18'0 0.0
2018-Feb-17 18:00N 36°48' W 076°18'0 0.0
2018-Feb-17 17:30N 36°48' W 076°18'0 0.0
2018-Feb-17 17:01N 36°48' W 076°18'0 0.0
2018-Feb-17 16:30N 36°48' W 076°18'0 0.0
2018-Feb-17 16:00N 36°48' W 076°18'0 0.0
2018-Feb-17 15:30N 36°48' W 076°18'0 0.0
2018-Feb-17 15:00N 36°48' W 076°18'0 0.0
2018-Feb-17 14:30N 36°48' W 076°18'0 0.0
2018-Feb-17 14:00N 36°48' W 076°18'0 0.0
2018-Feb-17 13:30N 36°48' W 076°18'0 0.0
2018-Feb-17 13:00N 36°48' W 076°18'0 0.0
2018-Feb-17 12:30N 36°48' W 076°18'0 0.0
2018-Feb-17 12:00N 36°48' W 076°18'0 0.0
2018-Feb-17 11:30N 36°48' W 076°18'0 0.0
2018-Feb-17 11:00N 36°48' W 076°18'0 0.0
2018-Feb-17 10:30N 36°48' W 076°18'0 0.0
2018-Feb-17 10:00N 36°48' W 076°18'0 0.0
2018-Feb-17 09:30N 36°48' W 076°18'0 0.0
2018-Feb-17 09:00N 36°48' W 076°18'0 0.0
2018-Feb-17 08:30N 36°48' W 076°18'0 0.0
2018-Feb-17 08:00N 36°48' W 076°18'0 0.0
2018-Feb-17 07:30N 36°48' W 076°18'0 0.0
2018-Feb-17 07:00N 36°48' W 076°18'0 0.0
2018-Feb-17 06:30N 36°48' W 076°18'0 0.0
2018-Feb-17 06:00N 36°48' W 076°18'0 0.0
2018-Feb-17 05:30N 36°48' W 076°18'0 0.0
2018-Feb-17 05:00N 36°48' W 076°18'0 0.0
2018-Feb-17 04:30N 36°48' W 076°18'0 0.0
2018-Feb-17 04:00N 36°48' W 076°18'0 0.0
2018-Feb-17 03:30N 36°48' W 076°18'0 0.0
2018-Feb-17 03:00N 36°48' W 076°18'0 0.0
2018-Feb-17 02:30N 36°48' W 076°18'0 0.0
2018-Feb-17 02:00N 36°48' W 076°18'0 0.0
2018-Feb-17 01:30N 36°48' W 076°18'0 0.0
2018-Feb-17 01:00N 36°48' W 076°18'0 0.0
2018-Feb-17 00:30N 36°48' W 076°18'0 0.0
2018-Feb-17 00:00N 36°48' W 076°18'3 5.3
2018-Feb-16 23:31N 36°51' W 076°18'6 9.3
2018-Feb-16 22:55N 36°56' W 076°20'4 7.8
2018-Feb-16 22:27N 36°59' W 076°20'4 7.2
2018-Feb-16 21:57N 36°56' W 076°20'4 9.3
2018-Feb-16 21:30N 36°52' W 076°19'3 6.7
2018-Feb-16 21:00N 36°48' W 076°17'1 1.2
2018-Feb-16 20:30N 36°48' W 076°18'0 0.0
2018-Feb-16 20:00N 36°48' W 076°18'0 0.0
2018-Feb-16 19:30N 36°48' W 076°18'0 0.0
2018-Feb-16 19:00N 36°48' W 076°18'0 0.0
2018-Feb-16 18:30N 36°48' W 076°18'0 0.0
2018-Feb-16 18:00N 36°48' W 076°18'0 0.0
2018-Feb-16 17:30N 36°48' W 076°18'0 0.0
2018-Feb-16 17:00N 36°48' W 076°18'0 0.1
2018-Feb-16 16:30N 36°48' W 076°18'3 5.1
2018-Feb-16 16:00N 36°50' W 076°17'1 1.2
2018-Feb-16 15:30N 36°50' W 076°16'0 0.1
2018-Feb-16 15:00N 36°50' W 076°16'0 0.0
2018-Feb-16 11:58N 36°50' W 076°16'0 0.0
2018-Feb-16 11:30N 36°50' W 076°16'0 0.0
2018-Feb-16 11:00N 36°50' W 076°16'0 0.0
2018-Feb-16 10:31N 36°50' W 076°16'0 0.0
2018-Feb-16 10:01N 36°50' W 076°16'0 0.0
2018-Feb-16 09:30N 36°50' W 076°16'0 0.0
2018-Feb-16 09:00N 36°50' W 076°16'0 0.0
2018-Feb-16 08:30N 36°50' W 076°16'0 0.0
2018-Feb-16 08:00N 36°50' W 076°16'0 0.0
2018-Feb-16 07:31N 36°50' W 076°16'0 0.0
2018-Feb-16 07:01N 36°50' W 076°16'0 0.0
2018-Feb-16 06:31N 36°50' W 076°16'0 0.0
2018-Feb-16 06:00N 36°50' W 076°16'0 0.0
2018-Feb-16 05:30N 36°50' W 076°16'0 0.0
2018-Feb-16 05:00N 36°50' W 076°16'0 0.0
2018-Feb-16 04:30N 36°50' W 076°16'0 0.0
2018-Feb-16 04:01N 36°50' W 076°16'0 0.0
2018-Feb-16 03:31N 36°50' W 076°16'0 0.0
2018-Feb-16 03:01N 36°50' W 076°16'0 0.0
2018-Feb-16 02:31N 36°50' W 076°16'0 0.0
2018-Feb-16 02:01N 36°50' W 076°16'0 0.0
2018-Feb-16 01:30N 36°50' W 076°16'0 0.0
2018-Feb-16 01:00N 36°50' W 076°16'1 2.6
2018-Feb-16 00:30N 36°50' W 076°18'2 3.8
2018-Feb-16 00:00N 36°48' W 076°18'0 0.0
2018-Feb-15 23:30N 36°48' W 076°18'0 0.0
2018-Feb-15 23:01N 36°48' W 076°18'0 0.0
2018-Feb-15 22:30N 36°48' W 076°18'0 0.0
2018-Feb-15 22:00N 36°48' W 076°18'0 0.0
2018-Feb-15 21:30N 36°48' W 076°18'0 0.0
2018-Feb-15 21:00N 36°48' W 076°18'0 0.0
2018-Feb-15 20:31N 36°48' W 076°18'0 0.0
2018-Feb-15 20:01N 36°48' W 076°18'0 0.0
2018-Feb-15 19:31N 36°48' W 076°18'0 0.0
2018-Feb-15 19:01N 36°48' W 076°18'0 0.0
2018-Feb-15 18:30N 36°48' W 076°18'0 0.0
2018-Feb-15 18:01N 36°48' W 076°18'0 0.0
2018-Feb-15 17:30N 36°48' W 076°18'0 0.0
2018-Feb-15 17:01N 36°48' W 076°18'0 0.0
2018-Feb-15 16:30N 36°48' W 076°18'0 0.0
2018-Feb-15 16:01N 36°48' W 076°18'0 0.0
2018-Feb-15 15:30N 36°48' W 076°18'0 0.0
2018-Feb-15 15:01N 36°48' W 076°18'0 0.0
2018-Feb-15 14:31N 36°48' W 076°18'0 0.0
2018-Feb-15 14:01N 36°48' W 076°18'0 0.0
2018-Feb-15 13:31N 36°48' W 076°18'0 0.0
2018-Feb-15 13:01N 36°48' W 076°18'0 0.0
2018-Feb-15 12:30N 36°48' W 076°18'0 0.0
2018-Feb-15 12:00N 36°48' W 076°18'0 0.0
2018-Feb-15 11:30N 36°48' W 076°18'0 0.0
2018-Feb-15 11:00N 36°48' W 076°18'0 0.0
2018-Feb-15 10:31N 36°48' W 076°18'0 0.0
2018-Feb-15 10:00N 36°48' W 076°18'0 0.0
2018-Feb-15 09:30N 36°48' W 076°18'0 0.0
2018-Feb-15 09:01N 36°48' W 076°18'0 0.0
2018-Feb-15 08:30N 36°48' W 076°18'0 0.0
2018-Feb-15 08:01N 36°48' W 076°18'0 0.0
2018-Feb-15 07:30N 36°48' W 076°18'0 0.0
2018-Feb-15 07:01N 36°48' W 076°18'0 0.0
2018-Feb-15 06:31N 36°48' W 076°18'0 0.0
2018-Feb-15 06:01N 36°48' W 076°18'0 0.0
2018-Feb-15 05:31N 36°48' W 076°18'0 0.0
2018-Feb-15 05:00N 36°48' W 076°18'0 0.0
2018-Feb-15 04:30N 36°48' W 076°18'0 0.0
2018-Feb-15 04:00N 36°48' W 076°18'0 0.0
2018-Feb-15 03:30N 36°48' W 076°18'0 0.0
2018-Feb-15 03:01N 36°48' W 076°18'0 0.4
2018-Feb-15 02:31N 36°48' W 076°18'2 4.9
2018-Feb-15 02:00N 36°50' W 076°17'1 1.3
2018-Feb-15 01:31N 36°50' W 076°16'0 0.1
2018-Feb-15 01:01N 36°50' W 076°16'0 0.0
2018-Feb-15 00:30N 36°50' W 076°16'0 0.0
2018-Feb-15 00:00N 36°50' W 076°16'0 0.0
2018-Feb-14 23:30N 36°50' W 076°16'0 0.0
2018-Feb-14 23:01N 36°50' W 076°16'0 0.0
2018-Feb-14 22:30N 36°50' W 076°16'0 0.0
2018-Feb-14 22:00N 36°50' W 076°16'0 0.0
2018-Feb-14 21:31N 36°50' W 076°16'0 0.0
2018-Feb-14 21:00N 36°50' W 076°16'0 0.0
2018-Feb-14 20:30N 36°50' W 076°16'0 0.0
2018-Feb-14 20:01N 36°50' W 076°16'0 0.0
2018-Feb-14 19:30N 36°50' W 076°16'0 0.0
2018-Feb-14 19:00N 36°50' W 076°16'0 0.0
2018-Feb-14 18:30N 36°50' W 076°16'  
Track history (hours):
 
Tides and Currents Weather Stations Pressure Air Temp Water Temp Dewpoint Dewpoint Depression Visibility Wind Speed Wind Dir Waves Ship Positions

Red Hook

Owner: Vane Line Bunkering Inc, Philadelphia, PA. More information available from US FCC via Universal Licensing System and Coast Guard Vessel Documentation Center.

Last reported at 2018-Feb-18 16:15 UTC. Time now 2018-Feb-18 18:25 UTC.
Position N 36°48' W 075°53'.

Length 27 m; draft 4 m.

Type: Tow > 200 m length. MMSI: 367560590.

Date/timePositionNaut miles runAvg speedWind from/ knotsBaromVisibWave heightAir tempDewpointWater temp
2018-Feb-18 16:15N 36°48' W 075°53'310.5
2018-Feb-18 15:58N 36°51' W 075°54'510.2
2018-Feb-18 15:30N 36°55' W 075°57'5 9.4
2018-Feb-18 15:00N 36°57' W 076°02'5 9.1
2018-Feb-18 14:30N 36°59' W 076°08'5 9.2
2018-Feb-18 13:56N 37°00' W 076°14'4 8.9
2018-Feb-18 13:30N 36°59' W 076°19'4 8.6
2018-Feb-18 12:59N 36°55' W 076°20'4 8.8
2018-Feb-18 12:30N 36°51' W 076°18'3 6.5
2018-Feb-18 12:00N 36°48' W 076°18'0 0.5
2018-Feb-18 11:30N 36°48' W 076°18'0 0.0
2018-Feb-18 11:00N 36°48' W 076°18'0 0.0
2018-Feb-18 10:30N 36°48' W 076°18'0 0.0
2018-Feb-18 10:00N 36°48' W 076°18'0 0.0
2018-Feb-18 09:30N 36°48' W 076°18'0 0.0
2018-Feb-18 09:00N 36°48' W 076°18'0 0.0
2018-Feb-18 08:30N 36°48' W 076°18'0 0.0
2018-Feb-18 08:00N 36°48' W 076°18'0 0.0
2018-Feb-18 07:30N 36°48' W 076°18'0 0.0
2018-Feb-18 07:00N 36°48' W 076°18'0 0.0
2018-Feb-18 06:30N 36°48' W 076°18'0 0.0
2018-Feb-18 06:00N 36°48' W 076°18'0 0.0
2018-Feb-18 05:30N 36°48' W 076°18'0 0.0
2018-Feb-18 05:00N 36°48' W 076°18'0 0.0
2018-Feb-18 04:30N 36°48' W 076°18'0 0.0
2018-Feb-18 04:00N 36°48' W 076°18'0 0.0
2018-Feb-18 03:30N 36°48' W 076°18'0 0.0
2018-Feb-18 03:00N 36°48' W 076°18'0 0.0
2018-Feb-18 02:30N 36°48' W 076°18'0 0.0
2018-Feb-18 02:00N 36°48' W 076°18'0 0.0
2018-Feb-18 01:30N 36°48' W 076°18'0 0.0
2018-Feb-18 01:00N 36°48' W 076°18'0 0.0
2018-Feb-18 00:30N 36°48' W 076°18'0 0.0
2018-Feb-18 00:00N 36°48' W 076°18'0 0.0
2018-Feb-17 23:30N 36°48' W 076°18'0 0.0
2018-Feb-17 23:00N 36°48' W 076°18'0 0.0
2018-Feb-17 22:30N 36°48' W 076°18'0 0.0
2018-Feb-17 22:00N 36°48' W 076°18'0 0.0
2018-Feb-17 21:30N 36°48' W 076°18'0 0.0
2018-Feb-17 21:00N 36°48' W 076°18'0 0.0
2018-Feb-17 20:30N 36°48' W 076°18'0 0.0
2018-Feb-17 20:00N 36°48' W 076°18'0 0.0
2018-Feb-17 19:30N 36°48' W 076°18'0 0.0
2018-Feb-17 19:00N 36°48' W 076°18'0 0.0
2018-Feb-17 18:30N 36°48' W 076°18'0 0.0
2018-Feb-17 18:00N 36°48' W 076°18'0 0.0
2018-Feb-17 17:30N 36°48' W 076°18'0 0.0
2018-Feb-17 17:01N 36°48' W 076°18'0 0.0
2018-Feb-17 16:30N 36°48' W 076°18'0 0.0
2018-Feb-17 16:00N 36°48' W 076°18'0 0.0
2018-Feb-17 15:30N 36°48' W 076°18'0 0.0
2018-Feb-17 15:00N 36°48' W 076°18'0 0.0
2018-Feb-17 14:30N 36°48' W 076°18'0 0.0
2018-Feb-17 14:00N 36°48' W 076°18'0 0.0
2018-Feb-17 13:30N 36°48' W 076°18'0 0.0
2018-Feb-17 13:00N 36°48' W 076°18'0 0.0
2018-Feb-17 12:30N 36°48' W 076°18'0 0.0
2018-Feb-17 12:00N 36°48' W 076°18'0 0.0
2018-Feb-17 11:30N 36°48' W 076°18'0 0.0
2018-Feb-17 11:00N 36°48' W 076°18'0 0.0
2018-Feb-17 10:30N 36°48' W 076°18'0 0.0
2018-Feb-17 10:00N 36°48' W 076°18'0 0.0
2018-Feb-17 09:30N 36°48' W 076°18'0 0.0
2018-Feb-17 09:00N 36°48' W 076°18'0 0.0
2018-Feb-17 08:30N 36°48' W 076°18'0 0.0
2018-Feb-17 08:00N 36°48' W 076°18'0 0.0
2018-Feb-17 07:30N 36°48' W 076°18'0 0.0
2018-Feb-17 07:00N 36°48' W 076°18'0 0.0
2018-Feb-17 06:30N 36°48' W 076°18'0 0.0
2018-Feb-17 06:00N 36°48' W 076°18'0 0.0
2018-Feb-17 05:30N 36°48' W 076°18'0 0.0
2018-Feb-17 05:00N 36°48' W 076°18'0 0.0
2018-Feb-17 04:30N 36°48' W 076°18'0 0.0
2018-Feb-17 04:00N 36°48' W 076°18'0 0.0
2018-Feb-17 03:30N 36°48' W 076°18'0 0.0
2018-Feb-17 03:00N 36°48' W 076°18'0 0.0
2018-Feb-17 02:30N 36°48' W 076°18'0 0.0
2018-Feb-17 02:00N 36°48' W 076°18'0 0.0
2018-Feb-17 01:30N 36°48' W 076°18'0 0.0
2018-Feb-17 01:00N 36°48' W 076°18'0 0.0
2018-Feb-17 00:30N 36°48' W 076°18'0 0.0
2018-Feb-17 00:00N 36°48' W 076°18'3 5.3
2018-Feb-16 23:31N 36°51' W 076°18'6 9.3
2018-Feb-16 22:55N 36°56' W 076°20'4 7.8
2018-Feb-16 22:27N 36°59' W 076°20'4 7.2
2018-Feb-16 21:57N 36°56' W 076°20'4 9.3
2018-Feb-16 21:30N 36°52' W 076°19'3 6.7
2018-Feb-16 21:00N 36°48' W 076°17'1 1.2
2018-Feb-16 20:30N 36°48' W 076°18'0 0.0
2018-Feb-16 20:00N 36°48' W 076°18'0 0.0
2018-Feb-16 19:30N 36°48' W 076°18'0 0.0
2018-Feb-16 19:00N 36°48' W 076°18'0 0.0
2018-Feb-16 18:30N 36°48' W 076°18'0 0.0
2018-Feb-16 18:00N 36°48' W 076°18'0 0.0
2018-Feb-16 17:30N 36°48' W 076°18'0 0.0
2018-Feb-16 17:00N 36°48' W 076°18'0 0.1
2018-Feb-16 16:30N 36°48' W 076°18'3 5.1
2018-Feb-16 16:00N 36°50' W 076°17'1 1.2
2018-Feb-16 15:30N 36°50' W 076°16'0 0.1
2018-Feb-16 15:00N 36°50' W 076°16'0 0.0
2018-Feb-16 11:58N 36°50' W 076°16'0 0.0
2018-Feb-16 11:30N 36°50' W 076°16'0 0.0
2018-Feb-16 11:00N 36°50' W 076°16'0 0.0
2018-Feb-16 10:31N 36°50' W 076°16'0 0.0
2018-Feb-16 10:01N 36°50' W 076°16'0 0.0
2018-Feb-16 09:30N 36°50' W 076°16'0 0.0
2018-Feb-16 09:00N 36°50' W 076°16'0 0.0
2018-Feb-16 08:30N 36°50' W 076°16'0 0.0
2018-Feb-16 08:00N 36°50' W 076°16'0 0.0
2018-Feb-16 07:31N 36°50' W 076°16'0 0.0
2018-Feb-16 07:01N 36°50' W 076°16'0 0.0
2018-Feb-16 06:31N 36°50' W 076°16'0 0.0
2018-Feb-16 06:00N 36°50' W 076°16'0 0.0
2018-Feb-16 05:30N 36°50' W 076°16'0 0.0
2018-Feb-16 05:00N 36°50' W 076°16'0 0.0
2018-Feb-16 04:30N 36°50' W 076°16'0 0.0
2018-Feb-16 04:01N 36°50' W 076°16'0 0.0
2018-Feb-16 03:31N 36°50' W 076°16'0 0.0
2018-Feb-16 03:01N 36°50' W 076°16'0 0.0
2018-Feb-16 02:31N 36°50' W 076°16'0 0.0
2018-Feb-16 02:01N 36°50' W 076°16'0 0.0
2018-Feb-16 01:30N 36°50' W 076°16'0 0.0
2018-Feb-16 01:00N 36°50' W 076°16'1 2.6
2018-Feb-16 00:30N 36°50' W 076°18'2 3.8
2018-Feb-16 00:00N 36°48' W 076°18'0 0.0
2018-Feb-15 23:30N 36°48' W 076°18'0 0.0
2018-Feb-15 23:01N 36°48' W 076°18'0 0.0
2018-Feb-15 22:30N 36°48' W 076°18'0 0.0
2018-Feb-15 22:00N 36°48' W 076°18'0 0.0
2018-Feb-15 21:30N 36°48' W 076°18'0 0.0
2018-Feb-15 21:00N 36°48' W 076°18'0 0.0
2018-Feb-15 20:31N 36°48' W 076°18'0 0.0
2018-Feb-15 20:01N 36°48' W 076°18'0 0.0
2018-Feb-15 19:31N 36°48' W 076°18'0 0.0
2018-Feb-15 19:01N 36°48' W 076°18'0 0.0
2018-Feb-15 18:30N 36°48' W 076°18'0 0.0
2018-Feb-15 18:01N 36°48' W 076°18'0 0.0
2018-Feb-15 17:30N 36°48' W 076°18'0 0.0
2018-Feb-15 17:01N 36°48' W 076°18'0 0.0
2018-Feb-15 16:30N 36°48' W 076°18'0 0.0
2018-Feb-15 16:01N 36°48' W 076°18'0 0.0
2018-Feb-15 15:30N 36°48' W 076°18'0 0.0
2018-Feb-15 15:01N 36°48' W 076°18'0 0.0
2018-Feb-15 14:31N 36°48' W 076°18'0 0.0
2018-Feb-15 14:01N 36°48' W 076°18'0 0.0
2018-Feb-15 13:31N 36°48' W 076°18'0 0.0
2018-Feb-15 13:01N 36°48' W 076°18'0 0.0
2018-Feb-15 12:30N 36°48' W 076°18'0 0.0
2018-Feb-15 12:00N 36°48' W 076°18'0 0.0
2018-Feb-15 11:30N 36°48' W 076°18'0 0.0
2018-Feb-15 11:00N 36°48' W 076°18'0 0.0
2018-Feb-15 10:31N 36°48' W 076°18'0 0.0
2018-Feb-15 10:00N 36°48' W 076°18'0 0.0
2018-Feb-15 09:30N 36°48' W 076°18'0 0.0
2018-Feb-15 09:01N 36°48' W 076°18'0 0.0
2018-Feb-15 08:30N 36°48' W 076°18'0 0.0
2018-Feb-15 08:01N 36°48' W 076°18'0 0.0
2018-Feb-15 07:30N 36°48' W 076°18'0 0.0
2018-Feb-15 07:01N 36°48' W 076°18'0 0.0
2018-Feb-15 06:31N 36°48' W 076°18'0 0.0
2018-Feb-15 06:01N 36°48' W 076°18'0 0.0
2018-Feb-15 05:31N 36°48' W 076°18'0 0.0
2018-Feb-15 05:00N 36°48' W 076°18'0 0.0
2018-Feb-15 04:30N 36°48' W 076°18'0 0.0
2018-Feb-15 04:00N 36°48' W 076°18'0 0.0
2018-Feb-15 03:30N 36°48' W 076°18'0 0.0
2018-Feb-15 03:01N 36°48' W 076°18'0 0.4
2018-Feb-15 02:31N 36°48' W 076°18'2 4.9
2018-Feb-15 02:00N 36°50' W 076°17'1 1.3
2018-Feb-15 01:31N 36°50' W 076°16'0 0.1
2018-Feb-15 01:01N 36°50' W 076°16'0 0.0
2018-Feb-15 00:30N 36°50' W 076°16'0 0.0
2018-Feb-15 00:00N 36°50' W 076°16'0 0.0
2018-Feb-14 23:30N 36°50' W 076°16'0 0.0
2018-Feb-14 23:01N 36°50' W 076°16'0 0.0
2018-Feb-14 22:30N 36°50' W 076°16'0 0.0
2018-Feb-14 22:00N 36°50' W 076°16'0 0.0
2018-Feb-14 21:31N 36°50' W 076°16'0 0.0
2018-Feb-14 21:00N 36°50' W 076°16'0 0.0
2018-Feb-14 20:30N 36°50' W 076°16'0 0.0
2018-Feb-14 20:01N 36°50' W 076°16'0 0.0
2018-Feb-14 19:30N 36°50' W 076°16'0 0.0
2018-Feb-14 19:00N 36°50' W 076°16'0 0.0
2018-Feb-14 18:30N 36°50' W 076°16'  

Dump ship's entire track history